Weather reports worldwide

Advertisment
St-Raphael, France (7680): temperature & dewpoint: 16.06.2018 20:00:00 - 22.06.2018 20:00:00 (CEST)St-Raphael, France (7680): wind speed & gusts: 16.06.2018 20:00:00 - 22.06.2018 20:00:00 (CEST)St-Raphael, France (7680): wind direction: 16.06.2018 20:00:00 - 22.06.2018 20:00:00 (CEST)St-Raphael, France (7680): precipitation: 16.06.2018 20:00:00 - 22.06.2018 20:00:00 (CEST)
Date & Time tt [°C] td [°C] ff [km/h] ff [kn] fx [km/h] fx [kn] dd rr [mm]
22.06.2018 20:00:00 26,6 18,7 8 4 22 12 NE -
22.06.2018 19:00:00 27,3 19,4 11 6 34 18 ENE 0,0
22.06.2018 18:00:00 28,0 19,2 15 8 34 18 ENE 0,0
22.06.2018 17:00:00 28,4 19,3 15 8 35 19 ENE 0,0
22.06.2018 16:00:00 29,0 19,6 15 8 29 16 E 0,0
22.06.2018 15:00:00 28,1 19,6 15 8 34 18 E 0,0
22.06.2018 14:00:00 27,5 19,8 16 9 31 17 ESE -
22.06.2018 13:00:00 26,7 20,5 15 8 29 16 ESE 0,0
22.06.2018 12:00:00 27,7 21,3 11 6 22 12 SE 0,0
22.06.2018 11:00:00 26,6 19,7 8 4 18 10 SE 0,0
22.06.2018 10:00:00 25,8 18,5 5 3 18 10 NW 0,0
22.06.2018 09:00:00 23,9 16,2 9 5 21 11 WNW 0,0
22.06.2018 08:00:00 - - - - - - - -
22.06.2018 07:00:00 20,2 17,6 5 3 15 8 NW 0,0
22.06.2018 06:00:00 20,1 17,9 4 2 9 5 NNW 0,0
22.06.2018 05:00:00 20,8 17,8 4 2 13 7 NNE 0,0
22.06.2018 04:00:00 22,0 17,4 8 4 15 8 NNW 0,0
22.06.2018 03:00:00 22,3 17,2 8 4 16 9 N 0,0
22.06.2018 02:00:00 22,9 16,4 5 3 15 8 NNW -
22.06.2018 01:00:00 22,8 17,0 8 4 15 8 N 0,0
22.06.2018 00:00:00 21,8 19,0 0 0 8 4 N 0,0
21.06.2018 23:00:00 23,1 20,4 0 0 5 3 N 0,0
21.06.2018 22:00:00 23,8 20,5 2 1 8 4 SSW 0,0
21.06.2018 21:00:00 25,5 20,1 4 2 8 4 S 0,0
21.06.2018 20:00:00 25,6 19,5 4 2 11 6 WSW -
21.06.2018 19:00:00 26,1 18,5 4 2 18 10 ENE 0,0
21.06.2018 18:00:00 25,9 19,3 9 5 18 10 ENE 0,0
21.06.2018 17:00:00 25,8 20,8 9 5 29 16 SE 0,0
21.06.2018 16:00:00 29,1 21,3 11 6 29 16 SSE 0,0
21.06.2018 15:00:00 28,7 21,0 16 9 34 18 SSE 0,0
21.06.2018 14:00:00 28,1 21,6 18 10 34 18 SSE -
21.06.2018 13:00:00 28,7 21,0 13 7 28 15 SSE 0,0
21.06.2018 12:00:00 29,1 19,4 13 7 24 13 SSE 0,0
21.06.2018 11:00:00 29,9 17,4 4 2 15 8 SSW 0,0
21.06.2018 10:00:00 27,5 17,4 8 4 15 8 WNW 0,0
21.06.2018 09:00:00 25,8 18,0 8 4 18 10 NW 0,0
21.06.2018 08:00:00 23,4 17,6 8 4 16 9 NNW -
21.06.2018 07:00:00 21,3 16,7 8 4 18 10 NNW 0,0
21.06.2018 06:00:00 20,6 16,2 5 3 15 8 NNW 0,0
21.06.2018 05:00:00 20,9 16,5 5 3 16 9 NNW 0,0
21.06.2018 04:00:00 21,2 16,2 8 4 16 9 N 0,0
21.06.2018 03:00:00 21,9 16,2 5 3 15 8 N 0,0
21.06.2018 02:00:00 23,0 16,1 8 4 15 8 NNW -
21.06.2018 01:00:00 24,5 16,0 8 4 16 9 N 0,0
21.06.2018 00:00:00 25,3 15,9 8 4 16 9 NNW 0,0
20.06.2018 23:00:00 25,5 15,8 4 2 15 8 NNW 0,0
20.06.2018 22:00:00 26,3 15,4 5 3 11 6 WNW 0,0
20.06.2018 21:00:00 27,0 15,7 8 4 18 10 WNW 0,0
20.06.2018 20:00:00 29,0 14,8 11 6 18 10 WNW -
20.06.2018 19:00:00 29,7 14,7 4 2 13 7 WSW 0,0
20.06.2018 18:00:00 31,1 12,9 8 4 15 8 SSE 0,0
20.06.2018 17:00:00 31,5 12,3 8 4 18 10 S 0,0
20.06.2018 16:00:00 30,3 13,1 9 5 18 10 SSE 0,0
20.06.2018 15:00:00 30,3 14,0 9 5 16 9 SSE 0,0
20.06.2018 14:00:00 29,7 13,9 11 6 21 11 SE -
20.06.2018 13:00:00 30,3 14,0 9 5 22 12 SE 0,0
20.06.2018 12:00:00 29,3 16,1 9 5 21 11 ESE 0,0
20.06.2018 11:00:00 28,5 17,1 8 4 28 15 E 0,0
20.06.2018 10:00:00 27,2 16,8 11 6 26 14 E 0,0
20.06.2018 09:00:00 23,9 18,1 4 2 15 8 NW 0,0
20.06.2018 08:00:00 22,2 17,3 8 4 15 8 NW -
20.06.2018 07:00:00 19,7 16,5 8 4 15 8 NW 0,0
20.06.2018 06:00:00 20,0 16,2 5 3 9 5 NW 0,0
20.06.2018 05:00:00 19,5 16,3 5 3 15 8 W 0,0
20.06.2018 04:00:00 20,9 16,3 5 3 11 6 NW 0,0
20.06.2018 03:00:00 21,3 15,8 4 2 11 6 NNW 0,0
20.06.2018 02:00:00 21,5 16,5 5 3 15 8 NW -
20.06.2018 01:00:00 21,9 16,2 5 3 11 6 NW 0,0
20.06.2018 00:00:00 22,3 17,9 4 2 9 5 W 0,0
19.06.2018 23:00:00 23,5 18,4 4 2 8 4 W 0,0
19.06.2018 22:00:00 24,7 18,9 4 2 9 5 E 0,0
19.06.2018 21:00:00 25,5 18,2 5 3 11 6 ESE 0,0
19.06.2018 20:00:00 27,1 17,3 5 3 13 7 ESE -
19.06.2018 19:00:00 27,2 18,5 5 3 15 8 SSE 0,0
19.06.2018 18:00:00 27,1 18,7 8 4 18 10 ESE 0,0
19.06.2018 17:00:00 28,6 16,5 9 5 18 10 ESE 0,0
19.06.2018 16:00:00 28,9 13,9 9 5 24 13 SE 0,0
19.06.2018 15:00:00 29,2 16,4 11 6 22 12 SE 0,0
19.06.2018 14:00:00 29,6 17,1 11 6 28 15 ESE -
19.06.2018 13:00:00 29,6 16,1 13 7 26 14 ESE 0,0
19.06.2018 12:00:00 30,0 18,1 11 6 22 12 ESE 0,0
19.06.2018 11:00:00 29,1 17,9 8 4 16 9 SE 0,0
19.06.2018 10:00:00 28,3 17,2 4 2 15 8 NW 0,0
19.06.2018 09:00:00 25,1 17,6 5 3 21 11 NW 0,0
19.06.2018 08:00:00 22,4 16,7 8 4 18 10 NNW -
19.06.2018 07:00:00 20,7 16,3 9 5 18 10 NW 0,0
19.06.2018 06:00:00 19,9 16,1 8 4 18 10 NNW 0,0
19.06.2018 05:00:00 20,2 16,4 8 4 18 10 NW 0,0
19.06.2018 04:00:00 19,9 16,3 5 3 11 6 NW 0,0
19.06.2018 03:00:00 20,2 17,0 2 1 9 5 W 0,0
19.06.2018 02:00:00 21,1 16,7 4 2 11 6 WNW -
19.06.2018 01:00:00 21,8 16,1 2 1 8 4 N 0,0
19.06.2018 00:00:00 21,9 17,3 4 2 8 4 NW 0,0
18.06.2018 23:00:00 23,3 17,1 2 1 5 3 WNW 0,0
18.06.2018 22:00:00 24,4 17,6 2 1 8 4 E 0,0
18.06.2018 21:00:00 25,4 17,8 4 2 11 6 E 0,0
18.06.2018 20:00:00 27,2 16,8 5 3 15 8 SE -
18.06.2018 19:00:00 27,4 17,6 8 4 18 10 SSE 0,0
18.06.2018 18:00:00 26,7 21,0 9 5 18 10 SSE 0,0
18.06.2018 17:00:00 26,5 19,6 8 4 16 9 SE 0,0
18.06.2018 16:00:00 27,6 18,9 9 5 21 11 SE 0,0
18.06.2018 15:00:00 27,1 20,4 9 5 21 11 SE 0,0
18.06.2018 14:00:00 26,6 19,5 11 6 18 10 SE -
18.06.2018 13:00:00 26,3 20,4 9 5 22 12 SE 0,0
18.06.2018 12:00:00 26,8 19,7 11 6 18 10 SE 0,0
18.06.2018 11:00:00 27,9 18,0 4 2 16 9 N 0,0
18.06.2018 10:00:00 25,1 16,5 8 4 18 10 NW 0,0
18.06.2018 09:00:00 22,9 14,7 11 6 22 12 NW 0,0
18.06.2018 08:00:00 20,9 14,3 11 6 26 14 NW -
18.06.2018 07:00:00 19,1 13,9 11 6 21 11 NNW 0,0
18.06.2018 06:00:00 19,1 13,7 11 6 22 12 NNW 0,0
18.06.2018 05:00:00 19,6 14,0 9 5 22 12 NNW 0,0
18.06.2018 04:00:00 20,2 14,3 9 5 18 10 NNW 0,0
18.06.2018 03:00:00 20,5 14,6 8 4 21 11 NNW 0,0
18.06.2018 02:00:00 21,2 15,1 8 4 21 11 N -
18.06.2018 01:00:00 21,6 15,9 8 4 16 9 N 0,0
18.06.2018 00:00:00 21,7 18,3 4 2 11 6 N 0,0
17.06.2018 23:00:00 22,0 18,2 2 1 8 4 SSW 0,0
17.06.2018 22:00:00 22,1 18,1 0 0 9 5 N 0,0
17.06.2018 21:00:00 23,7 20,4 4 2 13 7 SSW 0,0
17.06.2018 20:00:00 24,0 19,7 4 2 16 9 ESE -
17.06.2018 19:00:00 25,1 20,1 8 4 18 10 SE 0,0
17.06.2018 18:00:00 25,1 20,4 9 5 22 12 SSE 0,0
17.06.2018 17:00:00 25,9 20,9 9 5 22 12 SE 0,0
17.06.2018 16:00:00 25,3 21,0 11 6 22 12 SE 0,0
17.06.2018 15:00:00 25,4 20,6 13 7 24 13 SE 0,0
17.06.2018 14:00:00 25,2 20,7 13 7 28 15 SE -
17.06.2018 13:00:00 25,7 20,7 11 6 22 12 SSE 0,0
17.06.2018 12:00:00 25,7 20,9 9 5 21 11 SE 0,0
17.06.2018 11:00:00 25,1 20,4 11 6 21 11 SE 0,0
17.06.2018 10:00:00 25,2 17,7 4 2 18 10 NNW 0,0
17.06.2018 09:00:00 23,1 16,9 9 5 21 11 NW 0,0
17.06.2018 08:00:00 20,8 16,8 8 4 18 10 NNW -
17.06.2018 07:00:00 18,7 16,5 8 4 18 10 NNW 0,0
17.06.2018 06:00:00 18,4 16,2 9 5 16 9 NW 0,0
17.06.2018 05:00:00 18,9 16,7 4 2 13 7 WNW 0,0
17.06.2018 04:00:00 19,1 16,5 4 2 15 8 N 0,0
17.06.2018 03:00:00 19,7 17,1 5 3 13 7 N 0,0
17.06.2018 02:00:00 20,7 17,5 5 3 9 5 NW -
17.06.2018 01:00:00 21,2 17,8 5 3 13 7 N 0,0
17.06.2018 00:00:00 21,8 17,4 4 2 11 6 N 0,0
16.06.2018 23:00:00 22,1 16,6 4 2 13 7 NW 0,0
16.06.2018 22:00:00 23,3 16,8 4 2 9 5 WNW 0,0
16.06.2018 21:00:00 24,1 17,3 5 3 15 8 W 0,0
16.06.2018 20:00:00 23,0 20,0 2 1 15 8 ESE -

tt = temperature
td = dewpoint
ff = wind speed
fx = gusts
dd = wind direction
rr = precipitation

Next stations